createdAt,value
2022-10-12T00:01:14.351Z,15.82
2022-10-12T00:03:40.673Z,15.81
2022-10-12T00:06:06.994Z,15.81
2022-10-12T00:08:33.341Z,15.81
2022-10-12T00:10:59.677Z,15.82
2022-10-12T00:13:26.059Z,15.81
2022-10-12T00:15:52.453Z,15.79
2022-10-12T00:18:18.769Z,15.77
2022-10-12T00:20:45.127Z,15.76
2022-10-12T00:23:11.450Z,15.72
2022-10-12T00:25:37.767Z,15.70
2022-10-12T00:28:04.114Z,15.70
2022-10-12T00:30:30.451Z,15.69
2022-10-12T00:32:56.789Z,15.69
2022-10-12T00:35:23.128Z,15.70
2022-10-12T00:37:49.446Z,15.68
2022-10-12T00:40:15.794Z,15.67
2022-10-12T00:42:42.119Z,15.66
2022-10-12T00:45:08.436Z,15.65
2022-10-12T00:47:34.874Z,15.64
2022-10-12T00:50:01.137Z,15.65
2022-10-12T00:52:27.483Z,15.64
2022-10-12T00:54:53.802Z,15.63
2022-10-12T00:57:20.129Z,15.60
2022-10-12T00:59:46.446Z,15.60
2022-10-12T01:02:12.778Z,15.60
2022-10-12T01:04:39.154Z,15.60
2022-10-12T01:07:05.470Z,15.60
2022-10-12T01:09:31.788Z,15.59
2022-10-12T01:11:58.170Z,15.59
2022-10-12T01:14:24.499Z,15.58
2022-10-12T01:16:50.840Z,15.56
2022-10-12T01:19:17.181Z,15.55
2022-10-12T01:21:43.502Z,15.56
2022-10-12T01:24:09.825Z,15.56
2022-10-12T01:26:36.177Z,15.55
2022-10-12T01:29:02.492Z,15.52
2022-10-12T01:31:32.389Z,15.50
2022-10-12T01:33:55.139Z,15.49
2022-10-12T01:36:21.485Z,15.48
2022-10-12T01:38:48.065Z,15.47
2022-10-12T01:41:14.404Z,15.47
2022-10-12T01:43:40.721Z,15.48
2022-10-12T01:46:07.063Z,15.47
2022-10-12T01:48:33.379Z,15.47
2022-10-12T01:50:59.702Z,15.47
2022-10-12T01:53:26.020Z,15.45
2022-10-12T01:55:52.360Z,15.44
2022-10-12T01:58:18.694Z,15.43
2022-10-12T02:00:45.037Z,15.41
2022-10-12T02:03:11.537Z,15.39
2022-10-12T02:05:37.961Z,15.37
2022-10-12T02:08:04.242Z,15.38
2022-10-12T02:10:30.592Z,15.37
2022-10-12T02:12:56.972Z,15.38
2022-10-12T02:15:23.310Z,15.38
2022-10-12T02:17:49.666Z,15.39
2022-10-12T02:20:16.029Z,15.39
2022-10-12T02:22:42.367Z,15.36
2022-10-12T02:25:08.708Z,15.36
2022-10-12T02:27:35.291Z,15.35
2022-10-12T02:30:01.413Z,15.36
2022-10-12T02:32:27.738Z,15.35
2022-10-12T02:34:54.053Z,15.36
2022-10-12T02:37:20.393Z,15.37
2022-10-12T02:39:46.711Z,15.38
2022-10-12T02:42:13.033Z,15.37
2022-10-12T02:44:39.355Z,15.37
2022-10-12T02:47:05.735Z,15.36
2022-10-12T02:49:32.078Z,15.37
2022-10-12T02:51:58.392Z,15.37
2022-10-12T02:54:24.718Z,15.36
2022-10-12T02:56:51.033Z,15.36
2022-10-12T02:59:17.419Z,15.35
2022-10-12T03:01:43.834Z,15.31
2022-10-12T03:04:10.096Z,15.29
2022-10-12T03:06:36.449Z,15.29
2022-10-12T03:09:02.800Z,15.29
2022-10-12T03:11:29.133Z,15.30
2022-10-12T03:13:55.499Z,15.31
2022-10-12T03:16:21.810Z,15.32
2022-10-12T03:18:48.135Z,15.31
2022-10-12T03:21:14.475Z,15.32
2022-10-12T03:23:40.800Z,15.32
2022-10-12T03:26:07.117Z,15.30
2022-10-12T03:28:33.548Z,15.26
2022-10-12T03:30:59.817Z,15.24
2022-10-12T03:33:26.137Z,15.21
2022-10-12T03:35:52.548Z,15.20
2022-10-12T03:38:18.851Z,15.20
2022-10-12T03:40:45.166Z,15.19
2022-10-12T03:43:11.519Z,15.18
2022-10-12T03:45:37.833Z,15.17
2022-10-12T03:48:05.251Z,15.17
2022-10-12T03:50:30.515Z,15.18
2022-10-12T03:52:56.832Z,15.19
2022-10-12T03:55:23.152Z,15.20
2022-10-12T03:57:49.479Z,15.21
2022-10-12T04:00:15.807Z,15.21
2022-10-12T04:02:42.158Z,15.21
2022-10-12T04:05:08.471Z,15.21
2022-10-12T04:07:34.998Z,15.20
2022-10-12T04:10:01.153Z,15.20
2022-10-12T04:12:27.477Z,15.22
2022-10-12T04:14:53.817Z,15.25
2022-10-12T04:17:20.177Z,15.24
2022-10-12T04:19:46.513Z,15.22
2022-10-12T04:22:12.840Z,15.22
2022-10-12T04:24:39.197Z,15.22
2022-10-12T04:27:05.535Z,15.22
2022-10-12T04:29:31.870Z,15.22
2022-10-12T04:31:58.193Z,15.20
2022-10-12T04:34:24.510Z,15.20
2022-10-12T04:36:50.858Z,15.20
2022-10-12T04:39:17.175Z,15.30
2022-10-12T04:41:43.502Z,15.41
2022-10-12T04:44:09.821Z,15.35
2022-10-12T04:46:36.149Z,15.31
2022-10-12T04:49:02.465Z,15.29
2022-10-12T04:51:28.807Z,15.28
2022-10-12T04:53:55.186Z,15.27
2022-10-12T04:56:21.526Z,15.27
2022-10-12T04:58:47.901Z,15.29
2022-10-12T05:01:14.265Z,15.31
2022-10-12T05:03:42.148Z,15.29
2022-10-12T05:06:06.919Z,15.27
2022-10-12T05:08:33.238Z,15.29
2022-10-12T05:10:59.563Z,15.33
2022-10-12T05:13:25.934Z,15.35
2022-10-12T05:15:52.292Z,15.36
2022-10-12T05:18:18.651Z,15.38
2022-10-12T05:20:45.030Z,15.36
2022-10-12T05:23:11.374Z,15.31
2022-10-12T05:25:37.897Z,15.28
2022-10-12T05:28:04.221Z,15.32
2022-10-12T05:30:30.549Z,15.35
2022-10-12T05:32:56.867Z,15.35
2022-10-12T05:35:23.217Z,15.32
2022-10-12T05:37:49.557Z,15.29
2022-10-12T05:40:15.930Z,15.29
2022-10-12T05:42:42.267Z,15.29
2022-10-12T05:45:08.589Z,15.28
2022-10-12T05:47:35.098Z,15.32
2022-10-12T05:50:01.299Z,15.36
2022-10-12T05:52:27.613Z,15.41
2022-10-12T05:54:53.945Z,15.44
2022-10-12T05:57:20.301Z,15.48
2022-10-12T05:59:46.706Z,15.50
2022-10-12T06:02:13.042Z,15.51
2022-10-12T06:04:39.322Z,15.49
2022-10-12T06:07:05.632Z,15.50
2022-10-12T06:09:31.977Z,15.52
2022-10-12T06:11:58.317Z,15.53
2022-10-12T06:14:24.659Z,15.55
2022-10-12T06:16:53.818Z,15.56
2022-10-12T06:19:17.349Z,15.57
2022-10-12T06:21:43.702Z,15.59
2022-10-12T06:24:10.054Z,15.62
2022-10-12T06:26:36.432Z,15.63
2022-10-12T06:29:02.776Z,15.62
2022-10-12T06:31:29.089Z,15.61
2022-10-12T06:33:55.418Z,15.62
2022-10-12T06:36:21.801Z,15.65
2022-10-12T06:38:48.120Z,15.67
2022-10-12T06:41:14.438Z,15.69
2022-10-12T06:43:40.780Z,15.71
2022-10-12T06:46:07.124Z,15.74
2022-10-12T06:48:33.470Z,15.77
2022-10-12T06:50:59.791Z,15.78
2022-10-12T06:53:26.130Z,15.80
2022-10-12T06:55:52.488Z,15.82
2022-10-12T06:58:18.812Z,15.84
2022-10-12T07:00:45.160Z,15.85
2022-10-12T07:03:11.518Z,15.84
2022-10-12T07:05:37.881Z,15.85
2022-10-12T07:08:04.189Z,15.86
2022-10-12T07:10:30.516Z,15.87
2022-10-12T07:12:56.868Z,15.90
2022-10-12T07:15:23.232Z,15.96
2022-10-12T07:17:49.573Z,16.01
2022-10-12T07:20:15.916Z,16.04
2022-10-12T07:22:42.253Z,16.06
2022-10-12T07:25:08.578Z,16.08
2022-10-12T07:27:34.981Z,16.11
2022-10-12T07:30:01.243Z,16.10
2022-10-12T07:32:27.578Z,16.09
2022-10-12T07:34:53.916Z,16.11
2022-10-12T07:37:20.233Z,16.13
2022-10-12T07:39:46.558Z,16.12
2022-10-12T07:42:18.253Z,16.07
2022-10-12T07:44:39.265Z,16.05
2022-10-12T07:47:05.605Z,16.06
2022-10-12T07:49:31.928Z,16.05
2022-10-12T07:51:58.271Z,16.04
2022-10-12T07:54:29.192Z,16.04
2022-10-12T07:56:51.024Z,16.06
2022-10-12T07:59:17.365Z,16.09
2022-10-12T08:01:43.747Z,16.11
2022-10-12T08:04:10.074Z,16.16
2022-10-12T08:06:36.388Z,16.17
2022-10-12T08:09:02.736Z,16.13
2022-10-12T08:11:29.092Z,16.13
2022-10-12T08:13:55.440Z,16.13
2022-10-12T08:16:21.779Z,16.17
2022-10-12T08:18:48.125Z,16.23
2022-10-12T08:21:14.442Z,16.28
2022-10-12T08:23:40.802Z,16.32
2022-10-12T08:26:07.127Z,16.38
2022-10-12T08:28:33.499Z,16.41
2022-10-12T08:30:59.804Z,16.44
2022-10-12T08:33:26.153Z,16.47
2022-10-12T08:35:52.473Z,16.46
2022-10-12T08:38:18.794Z,16.47
2022-10-12T08:40:45.140Z,16.48
2022-10-12T08:43:11.490Z,16.49
2022-10-12T08:45:37.824Z,16.48
2022-10-12T08:48:04.151Z,16.48
2022-10-12T08:50:31.588Z,16.48
2022-10-12T08:52:57.928Z,16.44
2022-10-12T08:55:24.302Z,16.41
2022-10-12T08:57:50.620Z,16.37
2022-10-12T09:00:16.972Z,16.35
2022-10-12T09:02:43.319Z,16.35
2022-10-12T09:05:09.639Z,16.36
2022-10-12T09:07:35.957Z,16.37
2022-10-12T09:10:02.281Z,16.39
2022-10-12T09:12:28.608Z,16.43
2022-10-12T09:14:55.436Z,16.37
2022-10-12T09:17:21.776Z,16.38
2022-10-12T09:19:48.091Z,16.38
2022-10-12T09:22:14.501Z,16.38
2022-10-12T09:24:40.835Z,16.41
2022-10-12T09:27:07.175Z,16.43
2022-10-12T09:29:33.494Z,16.48
2022-10-12T09:31:59.817Z,16.55
2022-10-12T09:34:26.158Z,16.59
2022-10-12T09:36:52.481Z,16.61
2022-10-12T09:39:18.823Z,16.64
2022-10-12T09:41:45.170Z,16.67
2022-10-12T09:44:11.488Z,16.74
2022-10-12T09:46:37.811Z,16.81
2022-10-12T09:49:04.131Z,16.83
2022-10-12T09:51:30.475Z,16.87
2022-10-12T09:53:57.789Z,16.91
2022-10-12T09:56:23.156Z,16.94
2022-10-12T09:58:49.501Z,16.98
2022-10-12T10:01:15.914Z,17.03
2022-10-12T10:03:42.165Z,17.08
2022-10-12T10:06:08.512Z,17.10
2022-10-12T10:08:34.849Z,17.14
2022-10-12T10:11:01.188Z,17.17
2022-10-12T10:13:27.506Z,17.18
2022-10-12T10:15:53.837Z,17.20
2022-10-12T10:18:20.160Z,17.23
2022-10-12T10:20:46.501Z,17.25
2022-10-12T10:23:12.839Z,17.28
2022-10-12T10:25:39.194Z,17.32
2022-10-12T10:28:05.511Z,17.35
2022-10-12T10:30:35.105Z,17.40
2022-10-12T10:32:58.223Z,17.43
2022-10-12T10:35:24.545Z,17.46
2022-10-12T10:37:50.894Z,17.48
2022-10-12T10:40:17.638Z,17.51
2022-10-12T10:42:43.570Z,17.56
2022-10-12T10:45:09.913Z,17.60
2022-10-12T10:47:36.227Z,17.65
2022-10-12T10:50:02.604Z,17.74
2022-10-12T10:52:28.945Z,17.83
2022-10-12T10:54:55.289Z,17.91
2022-10-12T10:57:21.630Z,17.98
2022-10-12T10:59:47.952Z,18.07
2022-10-12T11:02:14.293Z,18.15
2022-10-12T11:04:40.626Z,18.20
2022-10-12T11:07:06.994Z,18.27
2022-10-12T11:09:33.319Z,18.32
2022-10-12T11:11:59.636Z,18.33
2022-10-12T11:14:25.965Z,18.32
2022-10-12T11:16:52.310Z,18.35
2022-10-12T11:19:18.635Z,18.37
2022-10-12T11:21:44.955Z,18.37
2022-10-12T11:24:11.296Z,18.40
2022-10-12T11:26:37.632Z,18.51
2022-10-12T11:29:04.019Z,18.55
2022-10-12T11:31:30.347Z,18.54
2022-10-12T11:33:56.703Z,18.57
2022-10-12T11:36:23.020Z,18.63
2022-10-12T11:38:49.366Z,18.69
2022-10-12T11:43:42.084Z,18.71
2022-10-12T11:46:08.395Z,18.69
2022-10-12T11:48:34.720Z,18.63
2022-10-12T11:51:04.173Z,18.68
2022-10-12T11:53:27.435Z,18.73
2022-10-12T11:55:53.776Z,18.76
2022-10-12T11:58:24.430Z,18.81
2022-10-12T12:00:46.433Z,18.81
2022-10-12T12:03:12.844Z,18.83
2022-10-12T12:05:39.115Z,18.82
2022-10-12T12:08:05.460Z,18.84
2022-10-12T12:10:31.817Z,18.90
2022-10-12T12:12:58.141Z,18.94
2022-10-12T12:15:24.556Z,18.83
2022-10-12T12:17:50.894Z,18.54
2022-10-12T12:20:17.211Z,18.49
2022-10-12T12:22:43.539Z,18.38
2022-10-12T12:25:09.858Z,18.33
2022-10-12T12:27:36.204Z,18.23
2022-10-12T12:30:02.673Z,18.12
2022-10-12T12:32:29.063Z,18.05
2022-10-12T12:34:59.997Z,18.11
2022-10-12T12:37:21.710Z,18.16
2022-10-12T12:39:48.025Z,18.12
2022-10-12T12:42:14.351Z,18.15
2022-10-12T12:44:40.767Z,18.21
2022-10-12T12:47:32.654Z,18.21
2022-10-12T12:49:33.423Z,18.26
2022-10-12T12:51:59.762Z,18.34
2022-10-12T12:54:26.101Z,18.42
2022-10-12T12:56:52.447Z,18.50
2022-10-12T12:59:18.763Z,18.54
2022-10-12T13:01:45.178Z,18.59
2022-10-12T13:04:11.431Z,18.65
2022-10-12T13:06:37.776Z,18.68
2022-10-12T13:09:04.098Z,18.69
2022-10-12T13:11:30.464Z,18.73
2022-10-12T13:13:56.803Z,18.79
2022-10-12T13:17:09.536Z,18.84
2022-10-12T13:18:49.512Z,18.89
2022-10-12T13:21:15.834Z,18.92
2022-10-12T13:23:42.159Z,18.96
2022-10-12T13:26:08.494Z,18.98
2022-10-12T13:28:34.872Z,18.99
2022-10-12T13:31:01.144Z,19.01
2022-10-12T13:33:32.152Z,19.02
2022-10-12T13:35:53.844Z,19.03
2022-10-12T13:38:20.193Z,19.03
2022-10-12T13:40:46.581Z,19.03
2022-10-12T13:43:12.923Z,19.02
2022-10-12T13:45:39.242Z,19.00
2022-10-12T13:48:05.580Z,19.01
2022-10-12T13:50:31.921Z,18.99
2022-10-12T13:52:58.263Z,18.97
2022-10-12T13:55:24.648Z,18.99
2022-10-12T13:57:50.966Z,19.05
2022-10-12T14:00:17.303Z,19.05
2022-10-12T14:02:43.632Z,19.03
2022-10-12T14:05:09.980Z,19.01
2022-10-12T14:07:36.291Z,18.99
2022-10-12T14:10:02.695Z,18.97
2022-10-12T14:12:29.004Z,18.96
2022-10-12T14:14:55.328Z,18.96
2022-10-12T14:17:21.681Z,18.91
2022-10-12T14:19:48.023Z,18.88
2022-10-12T14:22:14.351Z,18.86
2022-10-12T14:24:40.735Z,18.84
2022-10-12T14:27:07.055Z,18.83
2022-10-12T14:29:33.404Z,18.80
2022-10-12T14:31:59.745Z,18.77
2022-10-12T14:34:26.098Z,18.73
2022-10-12T14:36:52.433Z,18.71
2022-10-12T14:39:18.778Z,18.70
2022-10-12T14:41:45.096Z,18.66
2022-10-12T14:44:11.449Z,18.63
2022-10-12T14:46:37.770Z,18.60
2022-10-12T14:49:04.147Z,18.57
2022-10-12T14:51:30.462Z,18.56
2022-10-12T14:53:56.806Z,18.53
2022-10-12T14:56:23.125Z,18.52
2022-10-12T14:58:49.445Z,18.52
2022-10-12T15:01:15.804Z,18.49
2022-10-12T15:03:42.094Z,18.46
2022-10-12T15:06:08.439Z,18.42
2022-10-12T15:08:34.781Z,18.43
2022-10-12T15:11:01.127Z,18.42
2022-10-12T15:13:27.458Z,18.38
2022-10-12T15:15:53.776Z,18.35
2022-10-12T15:18:20.140Z,18.33
2022-10-12T15:20:49.428Z,18.29
2022-10-12T15:23:12.818Z,18.26
2022-10-12T15:25:39.156Z,18.23
2022-10-12T15:28:05.498Z,18.21
2022-10-12T15:30:31.838Z,18.29
2022-10-12T15:32:58.178Z,18.31
2022-10-12T15:35:24.523Z,18.33
2022-10-12T15:37:50.844Z,18.31
2022-10-12T15:40:17.186Z,18.25
2022-10-12T15:42:43.547Z,18.19
2022-10-12T15:45:09.871Z,18.13
2022-10-12T15:47:36.227Z,18.07
2022-10-12T15:50:02.591Z,18.02
2022-10-12T15:52:28.938Z,17.98
2022-10-12T15:54:55.290Z,17.95
2022-10-12T15:57:21.642Z,17.94
2022-10-12T15:59:48.028Z,17.95
2022-10-12T16:02:14.372Z,17.96
2022-10-12T16:04:40.708Z,17.95
2022-10-12T16:07:07.078Z,17.95
2022-10-12T16:09:33.457Z,17.94
2022-10-12T16:11:59.782Z,17.92
2022-10-12T16:14:26.159Z,17.88
2022-10-12T16:16:52.516Z,17.85
2022-10-12T16:19:18.836Z,17.83
2022-10-12T16:21:45.162Z,17.78
2022-10-12T16:24:11.519Z,17.74
2022-10-12T16:26:42.686Z,17.71
2022-10-12T16:29:04.200Z,17.68
2022-10-12T16:31:30.628Z,17.65
2022-10-12T16:33:56.865Z,17.61
2022-10-12T16:36:23.238Z,17.55
2022-10-12T16:38:49.553Z,17.51
2022-10-12T16:41:15.904Z,17.49
2022-10-12T16:43:42.239Z,17.49
2022-10-12T16:46:08.629Z,17.45
2022-10-12T16:48:35.003Z,17.40
2022-10-12T16:51:01.329Z,17.36
2022-10-12T16:53:27.651Z,17.32
2022-10-12T16:55:54.017Z,17.26
2022-10-12T16:58:20.345Z,17.24
2022-10-12T17:00:46.754Z,17.22
2022-10-12T17:03:13.010Z,17.21
2022-10-12T17:05:39.344Z,17.21
2022-10-12T17:08:05.698Z,17.19
2022-10-12T17:10:32.016Z,17.16
2022-10-12T17:12:58.418Z,17.11
2022-10-12T17:15:24.786Z,17.10
2022-10-12T17:17:51.117Z,17.09
2022-10-12T17:20:17.473Z,17.08
2022-10-12T17:22:43.839Z,17.09
2022-10-12T17:25:10.175Z,17.07
2022-10-12T17:27:36.524Z,17.04
2022-10-12T17:30:02.869Z,17.01
2022-10-12T17:32:29.325Z,16.97
2022-10-12T17:34:55.668Z,16.92
2022-10-12T17:37:22.064Z,16.88
2022-10-12T17:39:48.365Z,16.85
2022-10-12T17:42:14.981Z,16.82
2022-10-12T17:44:41.025Z,16.81
2022-10-12T17:47:07.349Z,16.80
2022-10-12T17:49:33.667Z,16.75
2022-10-12T17:52:00.090Z,16.70
2022-10-12T17:54:26.420Z,16.66
2022-10-12T17:56:52.751Z,16.64
2022-10-12T17:59:19.091Z,16.62
2022-10-12T18:01:45.440Z,16.62
2022-10-12T18:04:11.761Z,16.59
2022-10-12T18:06:38.106Z,16.58
2022-10-12T18:09:04.494Z,16.56
2022-10-12T18:11:30.848Z,16.56
2022-10-12T18:13:57.184Z,16.54
2022-10-12T18:16:23.544Z,16.51
2022-10-12T18:18:49.897Z,16.48
2022-10-12T18:21:16.238Z,16.44
2022-10-12T18:23:42.612Z,16.40
2022-10-12T18:26:08.946Z,16.37
2022-10-12T18:28:35.361Z,16.35
2022-10-12T18:31:01.738Z,16.36
2022-10-12T18:33:28.003Z,16.34
2022-10-12T18:35:54.346Z,16.30
2022-10-12T18:38:20.659Z,16.27
2022-10-12T18:40:47.039Z,16.23
2022-10-12T18:43:13.326Z,16.19
2022-10-12T18:45:39.687Z,16.16
2022-10-12T18:48:06.010Z,16.15
2022-10-12T18:50:32.382Z,16.12
2022-10-12T18:52:58.702Z,16.08
2022-10-12T18:55:25.026Z,16.06
2022-10-12T18:57:51.373Z,16.05
2022-10-12T19:00:17.726Z,16.04
2022-10-12T19:02:44.070Z,16.01
2022-10-12T19:05:10.418Z,15.99
2022-10-12T19:07:36.743Z,15.97
2022-10-12T19:10:03.104Z,15.94
2022-10-12T19:12:29.445Z,15.92
2022-10-12T19:14:55.769Z,15.88
2022-10-12T19:17:22.147Z,15.86
2022-10-12T19:19:48.469Z,15.81
2022-10-12T19:22:14.899Z,15.79
2022-10-12T19:24:41.120Z,15.78
2022-10-12T19:27:07.498Z,15.77
2022-10-12T19:29:33.842Z,15.76
2022-10-12T19:32:00.172Z,15.70
2022-10-12T19:34:26.530Z,15.67
2022-10-12T19:36:52.875Z,15.66
2022-10-12T19:39:19.200Z,15.64
2022-10-12T19:41:45.586Z,15.60
2022-10-12T19:44:11.912Z,15.57
2022-10-12T19:46:38.282Z,15.55
2022-10-12T19:49:04.659Z,15.51
2022-10-12T19:51:30.979Z,15.50
2022-10-12T19:53:57.324Z,15.47
2022-10-12T19:56:23.669Z,15.43
2022-10-12T19:58:49.990Z,15.38
2022-10-12T20:01:16.427Z,15.35
2022-10-12T20:03:47.481Z,15.33
2022-10-12T20:06:09.076Z,15.33
2022-10-12T20:08:35.424Z,15.33
2022-10-12T20:11:01.765Z,15.32
2022-10-12T20:13:28.088Z,15.29
2022-10-12T20:15:54.435Z,15.27
2022-10-12T20:18:20.764Z,15.25
2022-10-12T20:20:47.107Z,15.21
2022-10-12T20:23:13.425Z,15.19
2022-10-12T20:25:39.794Z,15.15
2022-10-12T20:28:06.120Z,15.14
2022-10-12T20:30:32.441Z,15.13
2022-10-12T20:32:58.807Z,15.12
2022-10-12T20:35:25.146Z,15.10
2022-10-12T20:37:51.476Z,15.08
2022-10-12T20:40:17.834Z,15.04
2022-10-12T20:42:44.174Z,14.99
2022-10-12T20:45:10.510Z,14.99
2022-10-12T20:47:36.856Z,14.99
2022-10-12T20:50:03.191Z,15.00
2022-10-12T20:52:29.510Z,14.99
2022-10-12T20:54:55.852Z,14.97
2022-10-12T20:57:22.219Z,14.95
2022-10-12T20:59:48.554Z,14.90
2022-10-12T21:02:14.955Z,14.87
2022-10-12T21:04:41.195Z,14.84
2022-10-12T21:07:07.576Z,14.82
2022-10-12T21:09:33.916Z,14.79
2022-10-12T21:12:00.240Z,14.73
2022-10-12T21:14:26.600Z,14.68
2022-10-12T21:16:52.942Z,14.65
2022-10-12T21:19:19.260Z,14.64
2022-10-12T21:21:45.606Z,14.59
2022-10-12T21:24:11.945Z,14.57
2022-10-12T21:26:38.293Z,14.55
2022-10-12T21:29:04.616Z,14.50
2022-10-12T21:31:32.580Z,14.47
2022-10-12T21:33:57.292Z,14.43
2022-10-12T21:36:23.662Z,14.38
2022-10-12T21:38:49.984Z,14.37
2022-10-12T21:41:16.347Z,14.35
2022-10-12T21:43:42.677Z,14.32
2022-10-12T21:46:08.999Z,14.27
2022-10-12T21:48:35.318Z,14.24
2022-10-12T21:51:01.649Z,14.23
2022-10-12T21:53:27.987Z,14.19
2022-10-12T21:55:54.378Z,14.18
2022-10-12T21:58:20.697Z,14.14
2022-10-12T22:00:47.081Z,14.15
2022-10-12T22:03:13.392Z,14.13
2022-10-12T22:05:39.717Z,14.13
2022-10-12T22:08:06.037Z,14.15
2022-10-12T22:10:32.422Z,14.15
2022-10-12T22:12:58.761Z,14.14
2022-10-12T22:15:25.097Z,14.12
2022-10-12T22:17:51.461Z,14.07
2022-10-12T22:20:17.782Z,14.06
2022-10-12T22:22:44.121Z,14.06
2022-10-12T22:25:10.471Z,14.06
2022-10-12T22:27:36.818Z,14.04
2022-10-12T22:30:03.126Z,13.97
2022-10-12T22:32:29.446Z,13.89
2022-10-12T22:34:55.799Z,13.85
2022-10-12T22:37:22.130Z,13.76
2022-10-12T22:39:48.482Z,13.66
2022-10-12T22:42:14.788Z,13.61
2022-10-12T22:44:41.156Z,13.61
2022-10-12T22:47:07.462Z,13.57
2022-10-12T22:49:33.816Z,13.58
2022-10-12T22:52:00.174Z,13.62
2022-10-12T22:54:26.485Z,13.69
2022-10-12T22:56:52.823Z,13.70
2022-10-12T22:59:19.199Z,13.71
2022-10-12T23:01:45.544Z,13.69
2022-10-12T23:04:11.867Z,13.65
2022-10-12T23:06:38.208Z,13.60
2022-10-12T23:09:04.529Z,13.55
2022-10-12T23:11:30.844Z,13.53
2022-10-12T23:13:57.200Z,13.48
2022-10-12T23:16:23.545Z,13.43
2022-10-12T23:18:49.895Z,13.40
2022-10-12T23:21:16.241Z,13.37
2022-10-12T23:23:42.612Z,13.37
2022-10-12T23:26:08.930Z,13.34
2022-10-12T23:28:35.317Z,13.38
2022-10-12T23:31:01.616Z,13.41
2022-10-12T23:33:27.947Z,13.34
2022-10-12T23:35:54.278Z,13.32
2022-10-12T23:38:20.601Z,13.30
2022-10-12T23:40:46.990Z,13.23
2022-10-12T23:43:13.328Z,13.20
2022-10-12T23:45:39.665Z,13.20
2022-10-12T23:48:06.012Z,13.23
2022-10-12T23:50:32.327Z,13.23
2022-10-12T23:52:58.668Z,13.22
2022-10-12T23:55:25.007Z,13.19
2022-10-12T23:57:51.336Z,13.15
